Time;durP1;ratioP1;P1;durP2;ratioP2;P2;SDS_P1;SDS_P2;PMS_P1;PMS_P2;Temp;Humidity;BMP_temperature;BMP_pressure;BME280_temperature;BME280_humidity;BME280_pressure;Samples;Min_cycle;Max_cycle;Signal;HPM_P1;HPM_P2
2022/05/13 00:00:36;;;;;;;;;;;;;;;;;;5112761;28;19918;-69
2022/05/13 00:03:21;;;;;;;;;;;;;;;;;;5112282;28;19920;-71
2022/05/13 00:06:06;;;;;;;;;;;;;;;;;;5103515;28;19990;-66
2022/05/13 00:08:52;;;;;;;;;;;;;;;;;;5109869;28;19962;-69
2022/05/13 00:11:37;;;;;;;;;;;;;;;;;;5112873;27;19912;-69
2022/05/13 00:14:23;;;;;;;;;;;;;;;;;;5110978;27;19912;-69
2022/05/13 00:17:08;;;;;;;;;;;;;;;;;;5108203;28;19931;-70
2022/05/13 00:19:54;;;;;;;;;;;;;;;;;;5112912;28;19934;-69
2022/05/13 00:22:39;;;;;;;;;;;;;;;;;;5112979;27;20010;-66
2022/05/13 00:25:25;;;;;;;;;;;;;;;;;;5090158;28;20507;-67
2022/05/13 00:28:10;;;;;;;;;;;;;;;;;;5088069;28;19912;-66
2022/05/13 00:30:59;;;;;;;;;;;;;;;;;;5103886;27;20010;-68
2022/05/13 00:33:45;;;;;;;;;;;;;;;;;;5110323;28;19912;-68
2022/05/13 00:36:30;;;;;;;;;;;;;;;;;;5112074;28;20018;-68
2022/05/13 00:39:15;;;;;;;;;;;;;;;;;;5112276;27;19986;-67
2022/05/13 00:42:01;;;;;;;;;;;;;;;;;;5080737;28;19919;-75
2022/05/13 00:44:47;;;;;;;;;;;;;;;;;;5096790;28;19918;-68
2022/05/13 00:47:32;;;;;;;;;;;;;;;;;;5094051;27;19947;-67
2022/05/13 00:50:18;;;;;;;;;;;;;;;;;;5109066;28;20358;-66
2022/05/13 00:53:03;;;;;;;;;;;;;;;;;;5113404;27;19923;-67
2022/05/13 00:55:49;;;;;;;;;;;;;;;;;;5108967;28;20359;-68
2022/05/13 00:58:34;;;;;;;;;;;;;;;;;;5102513;28;19918;-66
2022/05/13 01:01:19;;;;;;;;;;;;;;;;;;5109910;27;20410;-70
2022/05/13 01:04:05;;;;;;;;;;;;;;;;;;5094664;27;20008;-69
2022/05/13 01:06:50;;;;;;;;;;;;;;;;;;5113470;27;19912;-70
2022/05/13 01:09:36;;;;;;;;;;;;;;;;;;5088416;28;19935;-69
2022/05/13 01:12:21;;;;;;;;;;;;;;;;;;5109801;27;20006;-70
2022/05/13 01:15:07;;;;;;;;;;;;;;;;;;5112444;27;19911;-69
2022/05/13 01:18:05;;;;;;;;;;;;;;;;;;5090020;28;19920;-79
2022/05/13 01:20:50;;;;;;;;;;;;;;;;;;5085139;28;19919;-68
2022/05/13 01:23:36;;;;;;;;;;;;;;;;;;5090783;28;20345;-74
2022/05/13 01:26:25;;;;;;;;;;;;;;;;;;5087625;28;19928;-74
2022/05/13 01:29:11;;;;;;;;;;;;;;;;;;5082785;28;19912;-75
2022/05/13 01:31:56;;;;;;;;;;;;;;;;;;5103138;28;19912;-73
2022/05/13 01:34:42;;;;;;;;;;;;;;;;;;5086776;28;20359;-74
2022/05/13 01:37:27;;;;;;;;;;;;;;;;;;5088874;28;20003;-68
2022/05/13 01:40:13;;;;;;;;;;;;;;;;;;5090306;28;20102;-68
2022/05/13 01:42:58;;;;;;;;;;;;;;;;;;5089129;28;19928;-65
2022/05/13 01:45:43;;;;;;;;;;;;;;;;;;5089478;28;19957;-67
2022/05/13 01:48:29;;;;;;;;;;;;;;;;;;5088833;28;20389;-68
2022/05/13 01:51:14;;;;;;;;;;;;;;;;;;5082742;28;19919;-68
2022/05/13 01:54:00;;;;;;;;;;;;;;;;;;5081016;28;19955;-67
2022/05/13 01:56:45;;;;;;;;;;;;;;;;;;5077234;28;20302;-79
2022/05/13 01:59:31;;;;;;;;;;;;;;;;;;5088196;28;19951;-68
2022/05/13 02:02:16;;;;;;;;;;;;;;;;;;5086078;28;19920;-68
2022/05/13 02:05:02;;;;;;;;;;;;;;;;;;5076510;28;19951;-68
2022/05/13 02:07:47;;;;;;;;;;;;;;;;;;5086979;28;20011;-69
2022/05/13 02:10:32;;;;;;;;;;;;;;;;;;5089309;28;19978;-70
2022/05/13 02:13:18;;;;;;;;;;;;;;;;;;5090456;28;19912;-69
2022/05/13 02:16:03;;;;;;;;;;;;;;;;;;5079548;28;19912;-68
2022/05/13 02:18:49;;;;;;;;;;;;;;;;;;5107235;28;19948;-75
2022/05/13 02:21:34;;;;;;;;;;;;;;;;;;5109959;28;19912;-73
2022/05/13 02:24:20;;;;;;;;;;;;;;;;;;5108782;28;20010;-74
2022/05/13 02:27:05;;;;;;;;;;;;;;;;;;5103110;28;19998;-74
2022/05/13 02:29:51;;;;;;;;;;;;;;;;;;5102250;28;19937;-74
2022/05/13 02:32:36;;;;;;;;;;;;;;;;;;5109977;28;20297;-68
2022/05/13 02:35:22;;;;;;;;;;;;;;;;;;5105306;28;19934;-69
2022/05/13 02:38:07;;;;;;;;;;;;;;;;;;5111887;28;19930;-69
2022/05/13 02:41:11;;;;;;;;;;;;;;;;;;5107766;28;19912;-69
2022/05/13 02:43:56;;;;;;;;;;;;;;;;;;5111597;28;19958;-68
2022/05/13 02:46:43;;;;;;;;;;;;;;;;;;5109312;28;20461;-69
2022/05/13 02:49:28;;;;;;;;;;;;;;;;;;5096433;28;19911;-72
2022/05/13 02:52:14;;;;;;;;;;;;;;;;;;5106409;28;19962;-68
2022/05/13 02:54:59;;;;;;;;;;;;;;;;;;5101712;28;19912;-75
2022/05/13 02:57:45;;;;;;;;;;;;;;;;;;5104572;28;19993;-75
2022/05/13 03:00:30;;;;;;;;;;;;;;;;;;5111542;27;19912;-74
2022/05/13 03:03:15;;;;;;;;;;;;;;;;;;5101972;28;20291;-74
2022/05/13 03:06:01;;;;;;;;;;;;;;;;;;5108809;28;19912;-75
2022/05/13 03:08:46;;;;;;;;;;;;;;;;;;5093063;28;19919;-80
2022/05/13 03:11:32;;;;;;;;;;;;;;;;;;5113762;27;19956;-71
2022/05/13 03:14:17;;;;;;;;;;;;;;;;;;5091569;28;20019;-68
2022/05/13 03:17:03;;;;;;;;;;;;;;;;;;5112904;27;19971;-68
2022/05/13 03:19:48;;;;;;;;;;;;;;;;;;5111415;28;19927;-67
2022/05/13 03:22:34;;;;;;;;;;;;;;;;;;5096847;28;19930;-68
2022/05/13 03:25:19;;;;;;;;;;;;;;;;;;5107587;28;19912;-67
2022/05/13 03:28:04;;;;;;;;;;;;;;;;;;5096977;28;20013;-70
2022/05/13 03:30:50;;;;;;;;;;;;;;;;;;5105070;27;19919;-69
2022/05/13 03:33:35;;;;;;;;;;;;;;;;;;5110295;28;19954;-69
2022/05/13 03:36:21;;;;;;;;;;;;;;;;;;5091356;28;19912;-68
2022/05/13 03:39:06;;;;;;;;;;;;;;;;;;5113916;27;19923;-68
2022/05/13 03:41:53;;;;;;;;;;;;;;;;;;5107757;28;19957;-68
2022/05/13 03:44:38;;;;;;;;;;;;;;;;;;5106636;28;19911;-69
2022/05/13 03:47:23;;;;;;;;;;;;;;;;;;5088105;28;19988;-75
2022/05/13 03:50:09;;;;;;;;;;;;;;;;;;5100009;27;20405;-70
2022/05/13 03:52:54;;;;;;;;;;;;;;;;;;5093226;28;19912;-71
2022/05/13 03:55:41;;;;;;;;;;;;;;;;;;5107056;27;20159;-71
2022/05/13 03:58:26;;;;;;;;;;;;;;;;;;5103130;28;20003;-71
2022/05/13 04:01:12;;;;;;;;;;;;;;;;;;5112343;27;19961;-70
2022/05/13 04:03:57;;;;;;;;;;;;;;;;;;5094221;28;19919;-66
2022/05/13 04:09:47;;;;;;;;;;;;;;;;;;5103718;28;19911;-66
2022/05/13 04:18:41;;;;;;;;;;;;;;;;;;5107611;27;19991;-67
2022/05/13 04:21:28;;;;;;;;;;;;;;;;;;5112504;27;19915;-67
2022/05/13 04:24:13;;;;;;;;;;;;;;;;;;5110872;28;20049;-67
2022/05/13 04:27:00;;;;;;;;;;;;;;;;;;5097070;28;20377;-67
2022/05/13 04:29:46;;;;;;;;;;;;;;;;;;5101231;28;19916;-71
2022/05/13 04:32:31;;;;;;;;;;;;;;;;;;5112995;28;19911;-68
2022/05/13 04:35:17;;;;;;;;;;;;;;;;;;5110496;27;20325;-68
2022/05/13 04:38:02;;;;;;;;;;;;;;;;;;5090112;28;20011;-68
2022/05/13 04:40:48;;;;;;;;;;;;;;;;;;5108597;28;20457;-68
2022/05/13 04:43:33;;;;;;;;;;;;;;;;;;5110929;28;20322;-69
2022/05/13 04:46:19;;;;;;;;;;;;;;;;;;5101638;28;19911;-69
2022/05/13 04:49:04;;;;;;;;;;;;;;;;;;5112510;27;19920;-70
2022/05/13 04:51:50;;;;;;;;;;;;;;;;;;5108040;27;20301;-69
2022/05/13 04:54:35;;;;;;;;;;;;;;;;;;5103666;28;19949;-74
2022/05/13 04:57:20;;;;;;;;;;;;;;;;;;5098219;28;19974;-69
2022/05/13 05:00:07;;;;;;;;;;;;;;;;;;5084839;28;20009;-69
2022/05/13 05:02:52;;;;;;;;;;;;;;;;;;5107692;28;20363;-69
2022/05/13 05:05:38;;;;;;;;;;;;;;;;;;5106734;28;19932;-68
2022/05/13 05:08:23;;;;;;;;;;;;;;;;;;5112897;27;19911;-68
2022/05/13 05:11:09;;;;;;;;;;;;;;;;;;5099646;28;20232;-68
2022/05/13 05:13:54;;;;;;;;;;;;;;;;;;5111412;27;20002;-68
2022/05/13 05:16:40;;;;;;;;;;;;;;;;;;5100501;28;19912;-66
2022/05/13 05:19:25;;;;;;;;;;;;;;;;;;5106085;28;19923;-69
2022/05/13 05:22:11;;;;;;;;;;;;;;;;;;5109200;28;21450;-69
2022/05/13 05:24:56;;;;;;;;;;;;;;;;;;5120491;27;19922;-68
2022/05/13 05:27:41;;;;;;;;;;;;;;;;;;5120332;27;19912;-68
2022/05/13 05:30:27;;;;;;;;;;;;;;;;;;5110681;27;19919;-71
2022/05/13 05:33:12;;;;;;;;;;;;;;;;;;5119666;27;20160;-67
2022/05/13 05:35:58;;;;;;;;;;;;;;;;;;5115196;28;19912;-70
2022/05/13 05:38:43;;;;;;;;;;;;;;;;;;5108719;28;19919;-69
2022/05/13 05:41:29;;;;;;;;;;;;;;;;;;5101354;28;20278;-81
2022/05/13 05:44:14;;;;;;;;;;;;;;;;;;5092801;28;19920;-82
2022/05/13 05:47:00;;;;;;;;;;;;;;;;;;5112160;28;19916;-78
2022/05/13 05:49:45;;;;;;;;;;;;;;;;;;5105167;28;19922;-79
2022/05/13 05:52:31;;;;;;;;;;;;;;;;;;5105847;28;20023;-81
2022/05/13 05:58:20;;;;;;;;;;;;;;;;;;5109842;28;20307;-69
2022/05/13 06:01:07;;;;;;;;;;;;;;;;;;5105935;28;19920;-68
2022/05/13 06:03:52;;;;;;;;;;;;;;;;;;5112649;28;19919;-68
2022/05/13 06:06:38;;;;;;;;;;;;;;;;;;5113413;28;19943;-67
2022/05/13 06:09:23;;;;;;;;;;;;;;;;;;5112093;27;19912;-70
2022/05/13 06:12:10;;;;;;;;;;;;;;;;;;5111050;28;19912;-68
2022/05/13 06:14:57;;;;;;;;;;;;;;;;;;5102483;28;19920;-68
2022/05/13 06:17:43;;;;;;;;;;;;;;;;;;5109146;28;19998;-78
2022/05/13 06:20:28;;;;;;;;;;;;;;;;;;5092918;28;20401;-77
2022/05/13 06:23:14;;;;;;;;;;;;;;;;;;5086801;28;20066;-77
2022/05/13 06:25:59;;;;;;;;;;;;;;;;;;5091164;28;19935;-77
2022/05/13 06:28:45;;;;;;;;;;;;;;;;;;5107432;28;19912;-77
2022/05/13 06:31:30;;;;;;;;;;;;;;;;;;5108151;28;19972;-79
2022/05/13 06:34:16;;;;;;;;;;;;;;;;;;5095399;28;20388;-69
2022/05/13 06:37:01;;;;;;;;;;;;;;;;;;5116296;28;19912;-69
2022/05/13 06:39:46;;;;;;;;;;;;;;;;;;5093577;28;19937;-68
2022/05/13 06:42:32;;;;;;;;;;;;;;;;;;5090178;28;19920;-68
2022/05/13 06:45:17;;;;;;;;;;;;;;;;;;5114749;27;19919;-68
2022/05/13 06:48:03;;;;;;;;;;;;;;;;;;5126147;27;19997;-68
2022/05/13 06:50:48;;;;;;;;;;;;;;;;;;5119707;27;19912;-68
2022/05/13 06:53:34;;;;;;;;;;;;;;;;;;5105193;28;20290;-68
2022/05/13 06:56:19;;;;;;;;;;;;;;;;;;5101038;27;19912;-68
2022/05/13 06:59:05;;;;;;;;;;;;;;;;;;5102020;27;19912;-68
2022/05/13 07:01:50;;;;;;;;;;;;;;;;;;5097089;28;19978;-68
2022/05/13 07:04:36;;;;;;;;;;;;;;;;;;5100044;28;20286;-68
2022/05/13 07:07:21;;;;;;;;;;;;;;;;;;5098978;28;19933;-67
2022/05/13 07:10:07;;;;;;;;;;;;;;;;;;5101615;28;20090;-67
2022/05/13 07:12:52;;;;;;;;;;;;;;;;;;5098113;28;19915;-78
2022/05/13 07:15:37;;;;;;;;;;;;;;;;;;5092377;28;19912;-78
2022/05/13 07:18:23;;;;;;;;;;;;;;;;;;5114668;28;19927;-78
2022/05/13 07:21:08;;;;;;;;;;;;;;;;;;5112526;28;20366;-77
2022/05/13 07:23:54;;;;;;;;;;;;;;;;;;5115157;28;19935;-78
2022/05/13 07:26:39;;;;;;;;;;;;;;;;;;5114775;28;19920;-77
2022/05/13 07:29:25;;;;;;;;;;;;;;;;;;5112652;27;20002;-67
2022/05/13 07:32:10;;;;;;;;;;;;;;;;;;5095600;27;19981;-68
2022/05/13 07:34:56;;;;;;;;;;;;;;;;;;5121576;27;19931;-68
2022/05/13 07:37:41;;;;;;;;;;;;;;;;;;5117710;27;19919;-67
2022/05/13 07:43:31;;;;;;;;;;;;;;;;;;5111136;28;19950;-68
2022/05/13 07:46:16;;;;;;;;;;;;;;;;;;5109758;28;19912;-67
2022/05/13 07:49:02;;;;;;;;;;;;;;;;;;5113543;27;19916;-67
2022/05/13 07:51:47;;;;;;;;;;;;;;;;;;5115448;27;19908;-67
2022/05/13 07:54:33;;;;;;;;;;;;;;;;;;5107945;27;20398;-69
2022/05/13 07:57:18;;;;;;;;;;;;;;;;;;5094946;28;19915;-68
2022/05/13 08:03:08;;;;;;;;;;;;;;;;;;5101785;27;20012;-68
2022/05/13 08:05:57;;;;;;;;;;;;;;;;;;5093435;28;19912;-67
2022/05/13 08:08:43;;;;;;;;;;;;;;;;;;5099162;28;19912;-68
2022/05/13 08:11:29;;;;;;;;;;;;;;;;;;5094674;28;19962;-68
2022/05/13 08:14:14;;;;;;;;;;;;;;;;;;5114418;27;19911;-68
2022/05/13 08:17:00;;;;;;;;;;;;;;;;;;5112534;28;19965;-68
2022/05/13 08:19:45;;;;;;;;;;;;;;;;;;5114455;28;19911;-68
2022/05/13 08:22:30;;;;;;;;;;;;;;;;;;5106355;28;20293;-67
2022/05/13 08:25:16;;;;;;;;;;;;;;;;;;5103218;28;20260;-66
2022/05/13 08:28:01;;;;;;;;;;;;;;;;;;5111393;28;19952;-67
2022/05/13 08:30:47;;;;;;;;;;;;;;;;;;5086694;27;19911;-67
2022/05/13 08:33:32;;;;;;;;;;;;;;;;;;5098029;27;20011;-68
2022/05/13 08:36:18;;;;;;;;;;;;;;;;;;5109757;28;19935;-66
2022/05/13 08:39:03;;;;;;;;;;;;;;;;;;5109430;28;19912;-67
2022/05/13 08:41:49;;;;;;;;;;;;;;;;;;5095423;28;20267;-78
2022/05/13 08:44:34;;;;;;;;;;;;;;;;;;5112685;27;19916;-71
2022/05/13 08:47:20;;;;;;;;;;;;;;;;;;5111780;27;19908;-70
2022/05/13 08:50:05;;;;;;;;;;;;;;;;;;5120038;27;20378;-68
2022/05/13 08:53:06;;;;;;;;;;;;;;;;;;5101633;28;20638;-67
2022/05/13 08:55:51;;;;;;;;;;;;;;;;;;5105498;28;19916;-68
2022/05/13 08:58:37;;;;;;;;;;;;;;;;;;5093746;28;19961;-68
2022/05/13 09:01:22;;;;;;;;;;;;;;;;;;5106000;28;20607;-76
2022/05/13 09:04:08;;;;;;;;;;;;;;;;;;5098051;28;19920;-77
2022/05/13 09:06:53;;;;;;;;;;;;;;;;;;5101938;28;20340;-77
2022/05/13 09:09:39;;;;;;;;;;;;;;;;;;5092585;28;19919;-78
2022/05/13 09:12:24;;;;;;;;;;;;;;;;;;5097677;28;20278;-77
2022/05/13 09:15:09;;;;;;;;;;;;;;;;;;5110795;28;19908;-76
2022/05/13 09:17:55;;;;;;;;;;;;;;;;;;5096709;28;19955;-68
2022/05/13 09:20:40;;;;;;;;;;;;;;;;;;5111200;28;19961;-78
2022/05/13 09:23:26;;;;;;;;;;;;;;;;;;5107319;28;19931;-79
2022/05/13 09:26:14;;;;;;;;;;;;;;;;;;5093447;28;19930;-78
2022/05/13 09:29:00;;;;;;;;;;;;;;;;;;5112440;28;20337;-77
2022/05/13 09:31:45;;;;;;;;;;;;;;;;;;5095479;28;20050;-78
2022/05/13 09:34:31;;;;;;;;;;;;;;;;;;5108695;28;19912;-77
2022/05/13 09:37:16;;;;;;;;;;;;;;;;;;5098973;28;20305;-68
2022/05/13 09:40:02;;;;;;;;;;;;;;;;;;5125634;27;19911;-68
2022/05/13 09:42:47;;;;;;;;;;;;;;;;;;5100824;28;20325;-67
2022/05/13 09:45:36;;;;;;;;;;;;;;;;;;5111319;28;19982;-69
2022/05/13 09:48:21;;;;;;;;;;;;;;;;;;5113685;27;19920;-67
2022/05/13 09:51:07;;;;;;;;;;;;;;;;;;5108017;28;20030;-66
2022/05/13 09:53:52;;;;;;;;;;;;;;;;;;5103892;28;19931;-67
2022/05/13 09:56:38;;;;;;;;;;;;;;;;;;5110600;28;19957;-75
2022/05/13 09:59:23;;;;;;;;;;;;;;;;;;5113191;28;20281;-75
2022/05/13 10:02:09;;;;;;;;;;;;;;;;;;5094307;28;19919;-76
2022/05/13 10:04:54;;;;;;;;;;;;;;;;;;5107222;28;19916;-76
2022/05/13 10:07:40;;;;;;;;;;;;;;;;;;5115173;27;19912;-74
2022/05/13 10:16:34;;;;;;;;;;;;;;;;;;5118082;27;20006;-63
2022/05/13 10:19:19;;;;;;;;;;;;;;;;;;5119494;27;19920;-64
2022/05/13 10:22:05;;;;;;;;;;;;;;;;;;5127505;27;19963;-65
2022/05/13 10:24:50;;;;;;;;;;;;;;;;;;5118806;27;20247;-63
2022/05/13 10:27:36;;;;;;;;;;;;;;;;;;5128070;27;19918;-63
2022/05/13 10:30:22;;;;;;;;;;;;;;;;;;5100798;28;20294;-68
2022/05/13 10:33:07;;;;;;;;;;;;;;;;;;5116036;27;19912;-68
2022/05/13 10:35:53;;;;;;;;;;;;;;;;;;5125266;27;19935;-59
2022/05/13 10:38:38;;;;;;;;;;;;;;;;;;5119243;27;19912;-58
2022/05/13 10:41:24;;;;;;;;;;;;;;;;;;5116492;27;19911;-59
2022/05/13 10:44:09;;;;;;;;;;;;;;;;;;5112349;27;20018;-59
2022/05/13 10:46:54;;;;;;;;;;;;;;;;;;5115226;27;19919;-60
2022/05/13 10:49:40;;;;;;;;;;;;;;;;;;5119727;27;20278;-60
2022/05/13 10:52:26;;;;;;;;;;;;;;;;;;5103626;28;19915;-74
2022/05/13 10:55:11;;;;;;;;;;;;;;;;;;5110757;27;20398;-72
2022/05/13 10:57:57;;;;;;;;;;;;;;;;;;5102674;27;19912;-74
2022/05/13 11:00:42;;;;;;;;;;;;;;;;;;5101234;28;19912;-74
2022/05/13 11:03:28;;;;;;;;;;;;;;;;;;5111718;27;19967;-75
2022/05/13 11:06:13;;;;;;;;;;;;;;;;;;5100837;28;19919;-75
2022/05/13 11:08:59;;;;;;;;;;;;;;;;;;5109457;27;19912;-73
2022/05/13 11:11:45;;;;;;;;;;;;;;;;;;5102212;28;19963;-67
2022/05/13 11:14:32;;;;;;;;;;;;;;;;;;5102609;27;19922;-69
2022/05/13 11:17:18;;;;;;;;;;;;;;;;;;5092983;28;19920;-65
2022/05/13 11:20:03;;;;;;;;;;;;;;;;;;5107211;28;19912;-66
2022/05/13 11:22:49;;;;;;;;;;;;;;;;;;5091169;28;20030;-67
2022/05/13 11:28:38;;;;;;;;;;;;;;;;;;5108995;27;19911;-83
2022/05/13 11:31:24;;;;;;;;;;;;;;;;;;5110759;28;19920;-76
2022/05/13 11:34:09;;;;;;;;;;;;;;;;;;5094965;28;19912;-80
2022/05/13 11:36:54;;;;;;;;;;;;;;;;;;5098309;27;19919;-79
2022/05/13 11:39:40;;;;;;;;;;;;;;;;;;5113594;27;20267;-79
2022/05/13 11:42:25;;;;;;;;;;;;;;;;;;5106496;28;19985;-80
2022/05/13 11:45:11;;;;;;;;;;;;;;;;;;5112495;27;19946;-65
2022/05/13 11:47:56;;;;;;;;;;;;;;;;;;5103845;28;20449;-77
2022/05/13 11:50:42;;;;;;;;;;;;;;;;;;5109722;28;19985;-77
2022/05/13 11:53:27;;;;;;;;;;;;;;;;;;5113065;27;19977;-78
2022/05/13 11:56:13;;;;;;;;;;;;;;;;;;5095490;28;19919;-76
2022/05/13 11:59:01;;;;;;;;;;;;;;;;;;5105523;28;20002;-79
2022/05/13 12:01:46;;;;;;;;;;;;;;;;;;5108020;27;19922;-77
2022/05/13 12:04:31;;;;;;;;;;;;;;;;;;5107685;27;20434;-77
2022/05/13 12:07:17;;;;;;;;;;;;;;;;;;5092956;28;19923;-76
2022/05/13 12:10:02;;;;;;;;;;;;;;;;;;5090161;28;19916;-77
2022/05/13 12:12:49;;;;;;;;;;;;;;;;;;5108678;28;19912;-75
2022/05/13 12:15:35;;;;;;;;;;;;;;;;;;5108068;28;19938;-81
2022/05/13 12:18:21;;;;;;;;;;;;;;;;;;5107440;27;19965;-78
2022/05/13 12:21:06;;;;;;;;;;;;;;;;;;5112416;27;19919;-78
2022/05/13 12:23:52;;;;;;;;;;;;;;;;;;5109067;27;19928;-66
2022/05/13 12:26:37;;;;;;;;;;;;;;;;;;5110032;27;19911;-65
2022/05/13 12:29:23;;;;;;;;;;;;;;;;;;5103409;28;19912;-66
2022/05/13 12:32:09;;;;;;;;;;;;;;;;;;5109033;27;19962;-66
2022/05/13 12:38:00;;;;;;;;;;;;;;;;;;5111739;27;19916;-65
2022/05/13 12:40:45;;;;;;;;;;;;;;;;;;5105030;28;19916;-79
2022/05/13 12:43:31;;;;;;;;;;;;;;;;;;5111156;27;19927;-66
2022/05/13 12:46:16;;;;;;;;;;;;;;;;;;5101454;27;19918;-66
2022/05/13 12:49:02;;;;;;;;;;;;;;;;;;5104635;28;20312;-65
2022/05/13 12:51:48;;;;;;;;;;;;;;;;;;5104805;27;20404;-64
2022/05/13 12:54:33;;;;;;;;;;;;;;;;;;5108929;27;19912;-65
2022/05/13 12:57:19;;;;;;;;;;;;;;;;;;5122065;27;20258;-67
2022/05/13 13:00:04;;;;;;;;;;;;;;;;;;5110816;27;19972;-64
2022/05/13 13:02:49;;;;;;;;;;;;;;;;;;5107281;27;19920;-68
2022/05/13 13:05:35;;;;;;;;;;;;;;;;;;5103853;28;19916;-66
2022/05/13 13:08:22;;;;;;;;;;;;;;;;;;5108125;27;20328;-60
2022/05/13 13:11:08;;;;;;;;;;;;;;;;;;5110163;28;20384;-60
2022/05/13 13:13:53;;;;;;;;;;;;;;;;;;5100262;27;20407;-60
2022/05/13 13:16:39;;;;;;;;;;;;;;;;;;5116307;27;19912;-60
2022/05/13 13:19:24;;;;;;;;;;;;;;;;;;5106645;28;19920;-68
2022/05/13 13:22:10;;;;;;;;;;;;;;;;;;5109759;27;20014;-72
2022/05/13 13:24:55;;;;;;;;;;;;;;;;;;5105541;28;20440;-68
2022/05/13 13:27:41;;;;;;;;;;;;;;;;;;5106310;28;19920;-68
2022/05/13 13:30:26;;;;;;;;;;;;;;;;;;5121789;27;19918;-72
2022/05/13 13:33:12;;;;;;;;;;;;;;;;;;5113936;27;19912;-70
2022/05/13 13:35:57;;;;;;;;;;;;;;;;;;5110657;27;19920;-59
2022/05/13 13:38:43;;;;;;;;;;;;;;;;;;5103347;28;20374;-59
2022/05/13 13:41:28;;;;;;;;;;;;;;;;;;5101988;27;19984;-59
2022/05/13 13:44:14;;;;;;;;;;;;;;;;;;5110496;28;19920;-58
2022/05/13 13:46:59;;;;;;;;;;;;;;;;;;5105583;27;20357;-60
2022/05/13 13:49:45;;;;;;;;;;;;;;;;;;5111230;28;20014;-60
2022/05/13 13:52:30;;;;;;;;;;;;;;;;;;5099032;28;20395;-58
2022/05/13 13:55:16;;;;;;;;;;;;;;;;;;5117469;28;19916;-64
2022/05/13 13:58:01;;;;;;;;;;;;;;;;;;5104435;28;20329;-72
2022/05/13 14:00:47;;;;;;;;;;;;;;;;;;5088090;28;19916;-70
2022/05/13 14:03:32;;;;;;;;;;;;;;;;;;5089361;28;20392;-70
2022/05/13 14:06:18;;;;;;;;;;;;;;;;;;5112128;27;19912;-70
2022/05/13 14:09:03;;;;;;;;;;;;;;;;;;5106684;28;19911;-70
2022/05/13 14:11:49;;;;;;;;;;;;;;;;;;5086924;28;20029;-66
2022/05/13 14:14:34;;;;;;;;;;;;;;;;;;5092280;28;19919;-74
2022/05/13 14:17:20;;;;;;;;;;;;;;;;;;5106614;28;19923;-75
2022/05/13 14:20:06;;;;;;;;;;;;;;;;;;5092728;28;20363;-77
2022/05/13 14:22:51;;;;;;;;;;;;;;;;;;5105812;28;19947;-75
2022/05/13 14:25:37;;;;;;;;;;;;;;;;;;5112442;28;19908;-74
2022/05/13 14:28:22;;;;;;;;;;;;;;;;;;5093970;28;20358;-71
2022/05/13 14:31:08;;;;;;;;;;;;;;;;;;5103670;28;19912;-70
2022/05/13 14:33:53;;;;;;;;;;;;;;;;;;5106078;28;19911;-64
2022/05/13 14:36:39;;;;;;;;;;;;;;;;;;5109078;28;19937;-64
2022/05/13 14:42:28;;;;;;;;;;;;;;;;;;5096862;28;19924;-63
2022/05/13 14:45:14;;;;;;;;;;;;;;;;;;5110901;28;19941;-65
2022/05/13 14:47:59;;;;;;;;;;;;;;;;;;5116465;28;20400;-62
2022/05/13 14:50:45;;;;;;;;;;;;;;;;;;5096984;28;19927;-59
2022/05/13 14:53:30;;;;;;;;;;;;;;;;;;5103744;28;19919;-64
2022/05/13 14:56:16;;;;;;;;;;;;;;;;;;5100403;27;19922;-64
2022/05/13 14:59:01;;;;;;;;;;;;;;;;;;5114880;27;19941;-65
2022/05/13 15:01:47;;;;;;;;;;;;;;;;;;5123975;27;19934;-64
2022/05/13 15:04:32;;;;;;;;;;;;;;;;;;5108067;28;19916;-64
2022/05/13 15:07:19;;;;;;;;;;;;;;;;;;5105150;28;20447;-63
2022/05/13 15:10:05;;;;;;;;;;;;;;;;;;5113823;28;19923;-66
2022/05/13 15:12:50;;;;;;;;;;;;;;;;;;5102380;27;19911;-64
2022/05/13 15:15:35;;;;;;;;;;;;;;;;;;5108655;27;20302;-65
2022/05/13 15:18:24;;;;;;;;;;;;;;;;;;5091856;28;20020;-64
2022/05/13 15:21:09;;;;;;;;;;;;;;;;;;5101211;28;19915;-62
2022/05/13 15:23:55;;;;;;;;;;;;;;;;;;5117776;27;19923;-63
2022/05/13 15:26:40;;;;;;;;;;;;;;;;;;5101163;28;19912;-69
2022/05/13 15:29:26;;;;;;;;;;;;;;;;;;5096407;28;19915;-56
2022/05/13 15:32:11;;;;;;;;;;;;;;;;;;5108216;28;19937;-54
2022/05/13 15:34:57;;;;;;;;;;;;;;;;;;5109679;27;19951;-55
2022/05/13 15:37:43;;;;;;;;;;;;;;;;;;5114272;28;19911;-55
2022/05/13 15:40:28;;;;;;;;;;;;;;;;;;5101465;28;20382;-54
2022/05/13 15:43:14;;;;;;;;;;;;;;;;;;5105302;28;20019;-67
2022/05/13 15:46:00;;;;;;;;;;;;;;;;;;5094223;28;19912;-65
2022/05/13 15:48:46;;;;;;;;;;;;;;;;;;5105097;28;19959;-63
2022/05/13 15:54:36;;;;;;;;;;;;;;;;;;5101843;28;19974;-62
2022/05/13 15:57:21;;;;;;;;;;;;;;;;;;5107944;27;20716;-62
2022/05/13 16:00:09;;;;;;;;;;;;;;;;;;5111974;28;20259;-62
2022/05/13 16:02:54;;;;;;;;;;;;;;;;;;5095085;27;19963;-66
2022/05/13 16:05:39;;;;;;;;;;;;;;;;;;5109350;28;19959;-71
2022/05/13 16:08:25;;;;;;;;;;;;;;;;;;5107322;28;19912;-71
2022/05/13 16:11:13;;;;;;;;;;;;;;;;;;5114960;27;19911;-69
2022/05/13 16:13:58;;;;;;;;;;;;;;;;;;5083562;28;20362;-67
2022/05/13 16:16:44;;;;;;;;;;;;;;;;;;5111119;27;19995;-68
2022/05/13 16:19:29;;;;;;;;;;;;;;;;;;5104419;28;20531;-67
2022/05/13 16:22:15;;;;;;;;;;;;;;;;;;5113399;27;20112;-63
2022/05/13 16:25:01;;;;;;;;;;;;;;;;;;5104912;28;19920;-63
2022/05/13 16:27:46;;;;;;;;;;;;;;;;;;5102938;28;19924;-66
2022/05/13 16:30:32;;;;;;;;;;;;;;;;;;5111822;27;20360;-63
2022/05/13 16:33:18;;;;;;;;;;;;;;;;;;5103574;28;19923;-66
2022/05/13 16:36:03;;;;;;;;;;;;;;;;;;5106377;28;19912;-65
2022/05/13 16:38:49;;;;;;;;;;;;;;;;;;5103171;27;20015;-66
2022/05/13 16:41:34;;;;;;;;;;;;;;;;;;5109630;27;19918;-60
2022/05/13 16:44:19;;;;;;;;;;;;;;;;;;5104814;28;19990;-58
2022/05/13 16:47:05;;;;;;;;;;;;;;;;;;5107798;27;19911;-60
2022/05/13 16:49:51;;;;;;;;;;;;;;;;;;5107383;27;19919;-58
2022/05/13 16:52:36;;;;;;;;;;;;;;;;;;5110101;27;19916;-57
2022/05/13 16:55:22;;;;;;;;;;;;;;;;;;5094764;28;20010;-57
2022/05/13 16:58:07;;;;;;;;;;;;;;;;;;5111805;28;20066;-66
2022/05/13 17:00:53;;;;;;;;;;;;;;;;;;5111311;27;19912;-69
2022/05/13 17:03:40;;;;;;;;;;;;;;;;;;5109789;28;19920;-70
2022/05/13 17:06:25;;;;;;;;;;;;;;;;;;5078369;28;20311;-67
2022/05/13 17:19:15;;;;;;;;;;;;;;;;;;5105293;28;20015;-68
2022/05/13 17:21:29;;;;;;;;;;;;;;;;;;5100167;28;19911;-66
2022/05/13 17:24:15;;;;;;;;;;;;;;;;;;5108746;28;20034;-68
2022/05/13 17:27:01;;;;;;;;;;;;;;;;;;5092789;28;19912;-68
2022/05/13 17:29:46;;;;;;;;;;;;;;;;;;5102717;28;20282;-68
2022/05/13 17:32:33;;;;;;;;;;;;;;;;;;5097719;28;19912;-67
2022/05/13 17:35:18;;;;;;;;;;;;;;;;;;5103125;28;19911;-65
2022/05/13 17:38:04;;;;;;;;;;;;;;;;;;5108407;27;20370;-55
2022/05/13 17:40:49;;;;;;;;;;;;;;;;;;5110371;28;20160;-56
2022/05/13 17:43:36;;;;;;;;;;;;;;;;;;5110539;28;19927;-57
2022/05/13 17:46:21;;;;;;;;;;;;;;;;;;5108642;28;19919;-58
2022/05/13 17:49:07;;;;;;;;;;;;;;;;;;5106430;28;19911;-58
2022/05/13 17:51:53;;;;;;;;;;;;;;;;;;5091043;28;19912;-69
2022/05/13 17:54:38;;;;;;;;;;;;;;;;;;5110566;28;19919;-60
2022/05/13 17:57:24;;;;;;;;;;;;;;;;;;5098884;28;19922;-68
2022/05/13 18:00:09;;;;;;;;;;;;;;;;;;5103583;28;19987;-69
2022/05/13 18:02:55;;;;;;;;;;;;;;;;;;5102399;28;19971;-69
2022/05/13 18:05:40;;;;;;;;;;;;;;;;;;5112403;28;19912;-68
2022/05/13 18:08:26;;;;;;;;;;;;;;;;;;5093280;28;19916;-68
2022/05/13 18:11:11;;;;;;;;;;;;;;;;;;5107897;28;19947;-70
2022/05/13 18:13:58;;;;;;;;;;;;;;;;;;5106645;28;19912;-69
2022/05/13 18:16:44;;;;;;;;;;;;;;;;;;5108706;27;19918;-68
2022/05/13 18:19:29;;;;;;;;;;;;;;;;;;5105628;28;19920;-68
2022/05/13 18:22:15;;;;;;;;;;;;;;;;;;5096346;28;20320;-68
2022/05/13 18:25:00;;;;;;;;;;;;;;;;;;5093693;28;19957;-68
2022/05/13 18:27:45;;;;;;;;;;;;;;;;;;5108701;28;19916;-67
2022/05/13 18:30:31;;;;;;;;;;;;;;;;;;5111772;27;20258;-64
2022/05/13 18:33:16;;;;;;;;;;;;;;;;;;5114910;28;19951;-65
2022/05/13 18:36:02;;;;;;;;;;;;;;;;;;5098910;28;20378;-64
2022/05/13 18:38:47;;;;;;;;;;;;;;;;;;5109401;28;19908;-65
2022/05/13 18:47:41;;;;;;;;;;;;;;;;;;5103039;28;19916;-68
2022/05/13 18:50:26;;;;;;;;;;;;;;;;;;5109649;28;20447;-70
2022/05/13 18:53:12;;;;;;;;;;;;;;;;;;5098954;28;19976;-69
2022/05/13 18:55:57;;;;;;;;;;;;;;;;;;5091832;28;19920;-68
2022/05/13 18:58:43;;;;;;;;;;;;;;;;;;5095844;28;19912;-68
2022/05/13 19:01:29;;;;;;;;;;;;;;;;;;5096469;28;19974;-69
2022/05/13 19:04:15;;;;;;;;;;;;;;;;;;5107205;28;20322;-69
2022/05/13 19:07:00;;;;;;;;;;;;;;;;;;5105965;27;20252;-52
2022/05/13 19:09:46;;;;;;;;;;;;;;;;;;5102746;28;19916;-68
2022/05/13 19:12:31;;;;;;;;;;;;;;;;;;5102545;27;19966;-67
2022/05/13 19:15:16;;;;;;;;;;;;;;;;;;5095984;28;19919;-68
2022/05/13 19:18:03;;;;;;;;;;;;;;;;;;5112467;28;20316;-68
2022/05/13 19:20:48;;;;;;;;;;;;;;;;;;5111877;28;19980;-68
2022/05/13 19:23:33;;;;;;;;;;;;;;;;;;5084399;28;19967;-67
2022/05/13 19:26:19;;;;;;;;;;;;;;;;;;5108492;28;19912;-64
2022/05/13 19:29:04;;;;;;;;;;;;;;;;;;5097795;28;20300;-68
2022/05/13 19:31:50;;;;;;;;;;;;;;;;;;5083792;28;19918;-68
2022/05/13 19:34:35;;;;;;;;;;;;;;;;;;5108494;28;19919;-68
2022/05/13 19:37:21;;;;;;;;;;;;;;;;;;5102770;28;20315;-68
2022/05/13 19:40:08;;;;;;;;;;;;;;;;;;5095160;28;19938;-68
2022/05/13 19:42:54;;;;;;;;;;;;;;;;;;5106101;28;20070;-64